Time,TemperatureF,DewpointF,PressureIn,WindDirection,WindDirectionDegrees,WindSpeedMPH,WindSpeedGustMPH,Humidity,HourlyPrecipIn,Conditions,Clouds,dailyrainin,SoftwareType,DateUTC
2013-10-07 00:05:00,75.9,69.3,29.95,ENE,64,2.0,3.0,80,0.00,,,0.00,Wunderground v.1.15,2013-10-07 10:05:00,
2013-10-07 00:15:00,75.9,69.3,29.94,ENE,71,2.0,5.0,80,0.00,,,0.00,Wunderground v.1.15,2013-10-07 10:15:00,
2013-10-07 00:25:00,76.0,69.4,29.95,ESE,109,2.0,6.0,80,0.00,,,0.00,Wunderground v.1.15,2013-10-07 10:25:00,
2013-10-07 00:35:00,76.0,69.7,29.94,East,92,2.0,3.0,81,0.00,,,0.00,Wunderground v.1.15,2013-10-07 10:35:00,
2013-10-07 00:40:00,76.0,69.4,29.95,East,90,2.0,2.0,80,0.00,,,0.00,Wunderground v.1.15,2013-10-07 10:40:00,
2013-10-07 00:50:00,75.9,68.5,29.95,East,88,2.0,2.0,78,0.00,,,0.00,Wunderground v.1.15,2013-10-07 10:50:00,
2013-10-07 01:00:00,76.2,68.1,29.94,East,92,3.0,3.0,76,0.00,,,0.00,Wunderground v.1.15,2013-10-07 11:00:00,
2013-10-07 01:05:00,76.3,68.6,29.94,East,94,2.0,3.0,77,0.00,,,0.00,Wunderground v.1.15,2013-10-07 11:05:00,
2013-10-07 01:15:00,76.1,69.1,29.94,East,93,1.0,2.0,79,0.00,,,0.00,Wunderground v.1.15,2013-10-07 11:15:00,
2013-10-07 01:25:00,76.1,69.5,29.94,East,92,1.0,4.0,80,0.00,,,0.00,Wunderground v.1.15,2013-10-07 11:25:00,
2013-10-07 01:30:00,76.0,69.4,29.94,East,93,1.0,2.0,80,0.00,,,0.00,Wunderground v.1.15,2013-10-07 11:30:00,
2013-10-07 01:40:00,76.0,69.7,29.93,ENE,68,3.0,7.0,81,0.00,,,0.00,Wunderground v.1.15,2013-10-07 11:40:00,
2013-10-07 01:50:00,75.8,69.6,29.93,ENE,76,5.0,5.0,81,0.00,,,0.00,Wunderground v.1.15,2013-10-07 11:50:00,
2013-10-07 02:00:00,75.7,69.5,29.94,ESE,113,3.0,8.0,81,0.00,,,0.00,Wunderground v.1.15,2013-10-07 12:00:00,
2013-10-07 02:05:00,75.8,69.2,29.94,ESE,108,3.0,8.0,80,0.00,,,0.00,Wunderground v.1.15,2013-10-07 12:05:00,
2013-10-07 02:15:00,75.7,69.5,29.93,ESE,108,1.0,2.0,81,0.00,,,0.00,Wunderground v.1.15,2013-10-07 12:15:00,
2013-10-07 02:25:00,75.7,69.8,29.93,ENE,76,2.0,4.0,82,0.00,,,0.00,Wunderground v.1.15,2013-10-07 12:25:00,
2013-10-07 02:35:00,75.8,69.6,29.93,East,90,4.0,7.0,81,0.00,,,0.00,Wunderground v.1.15,2013-10-07 12:35:00,
2013-10-07 02:45:00,75.7,69.1,29.93,East,98,3.0,4.0,80,0.00,,,0.00,Wunderground v.1.15,2013-10-07 12:45:00,
2013-10-07 02:50:00,75.6,69.4,29.93,East,101,3.0,3.0,81,0.00,,,0.00,Wunderground v.1.15,2013-10-07 12:50:00,
2013-10-07 03:00:00,75.7,69.5,29.93,East,101,3.0,3.0,81,0.00,,,0.00,Wunderground v.1.15,2013-10-07 13:00:00,
2013-10-07 03:05:00,75.6,69.4,29.93,East,93,3.0,3.0,81,0.00,,,0.00,Wunderground v.1.15,2013-10-07 13:05:00,
2013-10-07 03:15:00,75.5,68.9,29.93,ENE,76,3.0,5.0,80,0.00,,,0.00,Wunderground v.1.15,2013-10-07 13:15:00,
2013-10-07 03:25:00,75.6,68.3,29.93,ESE,110,4.0,5.0,78,0.00,,,0.00,Wunderground v.1.15,2013-10-07 13:25:00,
2013-10-07 03:30:00,75.6,68.3,29.93,ESE,111,3.0,6.0,78,0.00,,,0.00,Wunderground v.1.15,2013-10-07 13:30:00,
2013-10-07 03:40:00,75.7,68.7,29.93,ESE,117,3.0,6.0,79,0.00,,,0.00,Wunderground v.1.15,2013-10-07 13:40:00,
2013-10-07 03:50:00,75.5,68.9,29.93,ESE,102,2.0,2.0,80,0.00,,,0.00,Wunderground v.1.15,2013-10-07 13:50:00,
2013-10-07 04:00:00,75.4,69.2,29.93,East,92,2.0,2.0,81,0.00,,,0.00,Wunderground v.1.15,2013-10-07 14:00:00,
2013-10-07 04:05:00,75.5,69.3,29.93,East,84,3.0,3.0,81,0.00,,,0.00,Wunderground v.1.15,2013-10-07 14:05:00,
2013-10-07 04:15:00,75.5,69.3,29.94,ENE,77,2.0,5.0,81,0.00,,,0.00,Wunderground v.1.15,2013-10-07 14:15:00,
2013-10-07 04:20:00,75.4,69.2,29.94,ENE,78,2.0,4.0,81,0.00,,,0.00,Wunderground v.1.15,2013-10-07 14:20:00,
2013-10-07 04:30:00,75.2,68.6,29.94,East,79,2.0,2.0,80,0.00,,,0.00,Wunderground v.1.15,2013-10-07 14:30:00,
2013-10-07 04:40:00,75.0,68.4,29.94,East,79,0.0,0.0,80,0.00,,,0.00,Wunderground v.1.15,2013-10-07 14:40:00,
2013-10-07 04:45:00,74.9,68.7,29.94,East,79,0.0,4.0,81,0.00,,,0.00,Wunderground v.1.15,2013-10-07 14:45:00,
2013-10-07 04:55:00,75.3,69.1,29.93,East,79,2.0,2.0,81,0.00,,,0.00,Wunderground v.1.15,2013-10-07 14:55:00,
2013-10-07 05:05:00,75.3,69.4,29.93,East,83,2.0,2.0,82,0.00,,,0.00,Wunderground v.1.15,2013-10-07 15:05:00,
2013-10-07 05:15:00,75.2,69.3,29.94,East,91,2.0,2.0,82,0.00,,,0.00,Wunderground v.1.15,2013-10-07 15:15:00,
2013-10-07 05:25:00,75.1,68.9,29.94,East,87,2.0,3.0,81,0.00,,,0.00,Wunderground v.1.15,2013-10-07 15:25:00,
2013-10-07 05:35:00,75.2,68.6,29.94,East,94,4.0,8.0,80,0.00,,,0.00,Wunderground v.1.15,2013-10-07 15:35:00,
2013-10-07 05:45:00,75.2,68.6,29.94,East,88,2.0,4.0,80,0.00,,,0.00,Wunderground v.1.15,2013-10-07 15:45:00,
2013-10-07 05:55:00,75.1,68.5,29.94,East,98,3.0,4.0,80,0.00,,,0.00,Wunderground v.1.15,2013-10-07 15:55:00,
2013-10-07 06:05:00,75.0,68.4,29.94,East,99,3.0,4.0,80,0.00,,,0.00,Wunderground v.1.15,2013-10-07 16:05:00,
2013-10-07 06:15:00,74.9,68.7,29.94,East,81,4.0,6.0,81,0.00,,,0.00,Wunderground v.1.15,2013-10-07 16:15:00,
2013-10-07 06:25:00,75.0,68.8,29.94,ENE,64,5.0,5.0,81,0.00,,,0.00,Wunderground v.1.15,2013-10-07 16:25:00,
2013-10-07 06:30:00,75.0,68.8,29.94,ENE,64,3.0,3.0,81,0.00,,,0.00,Wunderground v.1.15,2013-10-07 16:30:00,
2013-10-07 06:40:00,75.1,68.5,29.94,ENE,66,5.0,9.0,80,0.00,,,0.00,Wunderground v.1.15,2013-10-07 16:40:00,
2013-10-07 06:50:00,75.5,68.9,29.94,ESE,116,5.0,11.0,80,0.00,,,0.00,Wunderground v.1.15,2013-10-07 16:50:00,
2013-10-07 07:00:00,75.6,69.0,29.95,ESE,104,4.0,12.0,80,0.00,,,0.00,Wunderground v.1.15,2013-10-07 17:00:00,
2013-10-07 07:05:00,75.8,68.8,29.95,ESE,109,4.0,12.0,79,0.00,,,0.00,Wunderground v.1.15,2013-10-07 17:05:00,
2013-10-07 07:15:00,76.2,69.2,29.96,ESE,110,4.0,5.0,79,0.00,,,0.00,Wunderground v.1.15,2013-10-07 17:15:00,
2013-10-07 07:20:00,76.5,69.1,29.96,ESE,105,5.0,5.0,78,0.00,,,0.00,Wunderground v.1.15,2013-10-07 17:20:00,
2013-10-07 07:30:00,77.2,69.4,29.96,ESE,106,4.0,12.0,77,0.00,,,0.00,Wunderground v.1.15,2013-10-07 17:30:00,
2013-10-07 07:40:00,77.7,69.9,29.95,East,91,6.0,6.0,77,0.00,,,0.00,Wunderground v.1.15,2013-10-07 17:40:00,
2013-10-07 07:50:00,77.0,69.6,29.95,ENE,68,6.0,6.0,78,0.00,,,0.00,Wunderground v.1.15,2013-10-07 17:50:00,
2013-10-07 08:00:00,76.9,69.5,29.95,East,86,7.0,7.0,78,0.00,,,0.00,Wunderground v.1.15,2013-10-07 18:00:00,
2013-10-07 08:05:00,76.9,69.5,29.95,ESE,115,7.0,7.0,78,0.00,,,0.00,Wunderground v.1.15,2013-10-07 18:05:00,
2013-10-07 08:15:00,77.0,69.6,29.96,East,81,7.0,9.0,78,0.00,,,0.00,Wunderground v.1.15,2013-10-07 18:15:00,
2013-10-07 08:25:00,77.0,69.6,29.97,ESE,103,8.0,8.0,78,0.00,,,0.00,Wunderground v.1.15,2013-10-07 18:25:00,
2013-10-07 08:35:00,77.6,69.8,29.96,East,84,7.0,7.0,77,0.00,,,0.00,Wunderground v.1.15,2013-10-07 18:35:00,
2013-10-07 08:40:00,77.9,69.7,29.97,East,92,7.0,9.0,76,0.00,,,0.00,Wunderground v.1.15,2013-10-07 18:40:00,
2013-10-07 08:50:00,78.5,70.3,29.97,ESE,112,7.0,7.0,76,0.00,,,0.00,Wunderground v.1.15,2013-10-07 18:50:00,
2013-10-07 09:00:00,78.8,70.6,29.98,ESE,113,7.0,7.0,76,0.00,,,0.00,Wunderground v.1.15,2013-10-07 19:00:00,
2013-10-07 09:05:00,79.6,71.0,29.98,ESE,109,6.0,7.0,75,0.00,,,0.00,Wunderground v.1.15,2013-10-07 19:05:00,
2013-10-07 09:15:00,80.6,70.7,29.99,ESE,119,6.0,9.0,72,0.00,,,0.00,Wunderground v.1.15,2013-10-07 19:15:00,
2013-10-07 09:25:00,80.0,70.6,29.98,ENE,72,6.0,10.0,73,0.00,,,0.00,Wunderground v.1.15,2013-10-07 19:25:00,
2013-10-07 09:35:00,81.0,71.1,29.98,ESE,110,5.0,6.0,72,0.00,,,0.00,Wunderground v.1.15,2013-10-07 19:35:00,
2013-10-07 09:45:00,80.7,70.8,29.99,ESE,102,8.0,11.0,72,0.00,,,0.00,Wunderground v.1.15,2013-10-07 19:45:00,
2013-10-07 09:55:00,80.2,70.4,29.99,ESE,102,9.0,13.0,72,0.00,,,0.00,Wunderground v.1.15,2013-10-07 19:55:00,
2013-10-07 10:05:00,79.6,71.0,29.99,ESE,107,8.0,9.0,75,0.00,,,0.00,Wunderground v.1.15,2013-10-07 20:05:00,
2013-10-07 10:15:00,80.0,71.0,29.99,East,84,7.0,12.0,74,0.00,,,0.00,Wunderground v.1.15,2013-10-07 20:15:00,
2013-10-07 10:25:00,79.7,70.3,29.98,ENE,61,8.0,8.0,73,0.00,,,0.00,Wunderground v.1.15,2013-10-07 20:25:00,
2013-10-07 10:35:00,80.0,70.6,29.99,East,101,7.0,7.0,73,0.00,,,0.00,Wunderground v.1.15,2013-10-07 20:35:00,
2013-10-07 10:45:00,79.5,70.1,29.99,East,85,8.0,13.0,73,0.00,,,0.00,Wunderground v.1.15,2013-10-07 20:45:00,
2013-10-07 10:50:00,80.1,70.7,29.99,ENE,77,7.0,7.0,73,0.00,,,0.00,Wunderground v.1.15,2013-10-07 20:50:00,
2013-10-07 11:00:00,80.0,69.7,29.99,ENE,68,7.0,7.0,71,0.00,,,0.00,Wunderground v.1.15,2013-10-07 21:00:00,
2013-10-07 11:05:00,79.8,70.0,29.99,ESE,105,7.0,10.0,72,0.00,,,0.00,Wunderground v.1.15,2013-10-07 21:05:00,
2013-10-07 11:15:00,80.1,69.0,29.99,NE,52,7.0,10.0,69,0.00,,,0.00,Wunderground v.1.15,2013-10-07 21:15:00,
2013-10-07 11:25:00,80.5,69.8,29.99,East,84,7.0,8.0,70,0.00,,,0.00,Wunderground v.1.15,2013-10-07 21:25:00,
2013-10-07 11:35:00,81.2,70.5,29.98,East,101,5.0,10.0,70,0.00,,,0.00,Wunderground v.1.15,2013-10-07 21:35:00,
2013-10-07 11:45:00,81.1,69.1,29.98,East,96,5.0,5.0,67,0.00,,,0.00,Wunderground v.1.15,2013-10-07 21:45:00,
2013-10-07 11:55:00,81.4,69.8,29.98,SE,130,5.0,10.0,68,0.00,,,0.00,Wunderground v.1.15,2013-10-07 21:55:00,
2013-10-07 12:05:00,81.2,69.6,29.98,East,96,6.0,16.0,68,0.00,,,0.00,Wunderground v.1.15,2013-10-07 22:05:00,
2013-10-07 12:15:00,82.1,71.3,29.98,ESE,110,5.0,6.0,70,0.00,,,0.00,Wunderground v.1.15,2013-10-07 22:15:00,
2013-10-07 12:25:00,81.7,70.1,29.98,NE,54,4.0,6.0,68,0.00,,,0.00,Wunderground v.1.15,2013-10-07 22:25:00,
2013-10-07 12:35:00,81.6,70.9,29.97,East,98,7.0,10.0,70,0.00,,,0.00,Wunderground v.1.15,2013-10-07 22:35:00,
2013-10-07 12:45:00,81.6,70.4,29.97,East,99,5.0,9.0,69,0.00,,,0.00,Wunderground v.1.15,2013-10-07 22:45:00,
2013-10-07 12:55:00,81.4,71.1,29.97,ESE,108,5.0,5.0,71,0.00,,,0.00,Wunderground v.1.15,2013-10-07 22:55:00,
2013-10-07 13:00:00,81.7,70.5,29.97,ENE,69,5.0,5.0,69,0.00,,,0.00,Wunderground v.1.15,2013-10-07 23:00:00,
2013-10-07 13:05:00,81.6,70.9,29.97,East,98,6.0,7.0,70,0.00,,,0.00,Wunderground v.1.15,2013-10-07 23:05:00,
2013-10-07 13:15:00,81.3,70.6,29.96,ENE,69,6.0,7.0,70,0.00,,,0.00,Wunderground v.1.15,2013-10-07 23:15:00,
2013-10-07 13:25:00,81.2,70.5,29.95,East,90,7.0,11.0,70,0.00,,,0.00,Wunderground v.1.15,2013-10-07 23:25:00,
2013-10-07 13:30:00,81.2,70.1,29.95,East,86,7.0,7.0,69,0.00,,,0.00,Wunderground v.1.15,2013-10-07 23:30:00,
2013-10-07 13:40:00,81.9,70.3,29.95,ESE,122,4.0,4.0,68,0.00,,,0.00,Wunderground v.1.15,2013-10-07 23:40:00,
2013-10-07 13:45:00,81.9,69.9,29.96,ESE,115,7.0,14.0,67,0.00,,,0.00,Wunderground v.1.15,2013-10-07 23:45:00,
2013-10-07 13:55:00,81.7,69.7,29.95,ESE,120,7.0,9.0,67,0.00,,,0.00,Wunderground v.1.15,2013-10-07 23:55:00,
2013-10-07 14:05:00,81.3,69.7,29.95,East,96,7.0,7.0,68,0.00,,,0.00,Wunderground v.1.15,2013-10-08 00:05:00,
2013-10-07 14:15:00,81.6,69.6,29.95,East,101,6.0,11.0,67,0.00,,,0.00,Wunderground v.1.15,2013-10-08 00:15:00,
2013-10-07 14:25:00,81.9,70.3,29.95,East,98,6.0,7.0,68,0.00,,,0.00,Wunderground v.1.15,2013-10-08 00:25:00,
2013-10-07 14:30:00,82.0,70.4,29.95,ESE,123,6.0,6.0,68,0.00,,,0.00,Wunderground v.1.15,2013-10-08 00:30:00,
2013-10-07 14:40:00,82.0,69.5,29.94,ESE,105,8.0,9.0,66,0.00,,,0.00,Wunderground v.1.15,2013-10-08 00:40:00,
2013-10-07 14:50:00,82.0,70.0,29.94,East,86,7.0,7.0,67,0.00,,,0.00,Wunderground v.1.15,2013-10-08 00:50:00,
2013-10-07 15:00:00,82.4,69.9,29.94,East,86,6.0,11.0,66,0.00,,,0.00,Wunderground v.1.15,2013-10-08 01:00:00,
2013-10-07 15:05:00,82.3,69.8,29.93,ESE,113,6.0,11.0,66,0.00,,,0.00,Wunderground v.1.15,2013-10-08 01:05:00,
2013-10-07 15:15:00,81.5,69.5,29.93,East,94,8.0,11.0,67,0.00,,,0.00,Wunderground v.1.15,2013-10-08 01:15:00,
2013-10-07 15:25:00,81.5,68.6,29.93,ENE,62,8.0,8.0,65,0.00,,,0.00,Wunderground v.1.15,2013-10-08 01:25:00,
2013-10-07 15:35:00,81.3,69.7,29.94,East,86,6.0,10.0,68,0.00,,,0.00,Wunderground v.1.15,2013-10-08 01:35:00,
2013-10-07 15:40:00,81.4,68.9,29.93,NE,48,6.0,7.0,66,0.00,,,0.00,Wunderground v.1.15,2013-10-08 01:40:00,
2013-10-07 15:50:00,80.8,67.9,29.94,ESE,102,7.0,7.0,65,0.00,,,0.00,Wunderground v.1.15,2013-10-08 01:50:00,
2013-10-07 16:00:00,80.4,68.0,29.94,East,90,6.0,7.0,66,0.00,,,0.00,Wunderground v.1.15,2013-10-08 02:00:00,
2013-10-07 16:05:00,80.5,68.5,29.94,East,95,6.0,7.0,67,0.00,,,0.00,Wunderground v.1.15,2013-10-08 02:05:00,
2013-10-07 16:15:00,80.7,69.2,29.94,ENE,67,5.0,6.0,68,0.00,,,0.00,Wunderground v.1.15,2013-10-08 02:15:00,
2013-10-07 16:25:00,80.5,69.4,29.95,ESE,107,6.0,7.0,69,0.00,,,0.00,Wunderground v.1.15,2013-10-08 02:25:00,
2013-10-07 16:35:00,80.7,70.0,29.95,ENE,74,6.0,7.0,70,0.00,,,0.00,Wunderground v.1.15,2013-10-08 02:35:00,
2013-10-07 16:45:00,80.6,69.5,29.95,ESE,105,5.0,9.0,69,0.00,,,0.00,Wunderground v.1.15,2013-10-08 02:45:00,
2013-10-07 16:55:00,80.3,69.2,29.96,ENE,57,5.0,9.0,69,0.00,,,0.00,Wunderground v.1.15,2013-10-08 02:55:00,
2013-10-07 17:00:00,80.0,69.7,29.96,ENE,71,6.0,6.0,71,0.00,,,0.00,Wunderground v.1.15,2013-10-08 03:00:00,
2013-10-07 17:05:00,80.1,69.8,29.96,ENE,65,5.0,6.0,71,0.00,,,0.00,Wunderground v.1.15,2013-10-08 03:05:00,
2013-10-07 17:15:00,79.9,69.2,29.96,ENE,65,7.0,11.0,70,0.00,,,0.00,Wunderground v.1.15,2013-10-08 03:15:00,
2013-10-07 17:25:00,79.5,69.7,29.97,East,95,6.0,7.0,72,0.00,,,0.00,Wunderground v.1.15,2013-10-08 03:25:00,
2013-10-07 17:35:00,79.1,69.3,29.97,ENE,73,5.0,5.0,72,0.00,,,0.00,Wunderground v.1.15,2013-10-08 03:35:00,
2013-10-07 17:45:00,78.8,69.0,29.97,ENE,61,6.0,6.0,72,0.00,,,0.00,Wunderground v.1.15,2013-10-08 03:45:00,
2013-10-07 17:55:00,78.4,69.0,29.96,East,80,4.0,5.0,73,0.00,,,0.00,Wunderground v.1.15,2013-10-08 03:55:00,
2013-10-07 18:05:00,78.1,68.7,29.96,ESE,119,5.0,5.0,73,0.00,,,0.00,Wunderground v.1.15,2013-10-08 04:05:00,
2013-10-07 18:10:00,77.9,68.9,29.96,ENE,69,4.0,4.0,74,0.00,,,0.00,Wunderground v.1.15,2013-10-08 04:10:00,
2013-10-07 18:15:00,77.8,68.8,29.97,ESE,105,4.0,5.0,74,0.00,,,0.00,Wunderground v.1.15,2013-10-08 04:15:00,
2013-10-07 18:25:00,77.5,68.6,29.97,East,96,4.0,5.0,74,0.00,,,0.00,Wunderground v.1.15,2013-10-08 04:25:00,
2013-10-07 18:35:00,77.5,68.9,29.97,East,87,4.0,6.0,75,0.00,,,0.00,Wunderground v.1.15,2013-10-08 04:35:00,
2013-10-07 18:40:00,77.4,68.5,29.98,East,88,4.0,5.0,74,0.00,,,0.00,Wunderground v.1.15,2013-10-08 04:40:00,
2013-10-07 18:50:00,77.4,68.1,29.98,East,101,4.0,4.0,73,0.00,,,0.00,Wunderground v.1.15,2013-10-08 04:50:00,
2013-10-07 19:00:00,77.3,68.8,29.99,ENE,64,4.0,4.0,75,0.00,,,0.00,Wunderground v.1.15,2013-10-08 05:00:00,
2013-10-07 19:05:00,77.3,68.8,29.99,ESE,110,3.0,4.0,75,0.00,,,0.00,Wunderground v.1.15,2013-10-08 05:05:00,
2013-10-07 19:15:00,77.2,69.0,29.99,ESE,114,3.0,4.0,76,0.00,,,0.00,Wunderground v.1.15,2013-10-08 05:15:00,
2013-10-07 19:25:00,77.3,69.5,30.00,ENE,63,3.0,4.0,77,0.00,,,0.00,Wunderground v.1.15,2013-10-08 05:25:00,
2013-10-07 19:35:00,77.1,70.5,30.00,East,94,3.0,3.0,80,0.00,,,0.00,Wunderground v.1.15,2013-10-08 05:35:00,
2013-10-07 19:45:00,76.8,70.2,30.00,ESE,116,4.0,11.0,80,0.00,,,0.00,Wunderground v.1.15,2013-10-08 05:45:00,
2013-10-07 19:55:00,76.1,70.6,30.00,ESE,111,6.0,9.0,83,0.00,,,0.00,Wunderground v.1.15,2013-10-08 05:55:00,
2013-10-07 20:05:00,75.1,70.3,30.01,East,88,6.0,7.0,85,0.00,,,0.00,Wunderground v.1.15,2013-10-08 06:05:00,
2013-10-07 20:15:00,74.8,70.0,30.01,East,98,5.0,7.0,85,0.00,,,0.01,Wunderground v.1.15,2013-10-08 06:15:00,
2013-10-07 20:25:00,75.0,69.8,30.01,ENE,75,6.0,10.0,84,0.00,,,0.01,Wunderground v.1.15,2013-10-08 06:25:00,
2013-10-07 20:35:00,75.0,69.8,30.01,ESE,111,5.0,10.0,84,0.00,,,0.01,Wunderground v.1.15,2013-10-08 06:35:00,
2013-10-07 20:40:00,75.2,69.7,30.01,ENE,72,6.0,9.0,83,0.00,,,0.01,Wunderground v.1.15,2013-10-08 06:40:00,
2013-10-07 20:50:00,75.4,69.5,30.02,East,90,6.0,13.0,82,0.00,,,0.01,Wunderground v.1.15,2013-10-08 06:50:00,
2013-10-07 21:00:00,75.7,69.5,30.00,East,93,6.0,9.0,81,0.00,,,0.01,Wunderground v.1.15,2013-10-08 07:00:00,
2013-10-07 21:05:00,75.7,69.1,30.00,ENE,63,6.0,9.0,80,0.00,,,0.01,Wunderground v.1.15,2013-10-08 07:05:00,
2013-10-07 21:15:00,75.8,69.6,30.01,ESE,118,7.0,12.0,81,0.00,,,0.01,Wunderground v.1.15,2013-10-08 07:15:00,
2013-10-07 21:25:00,75.8,68.8,30.02,East,91,5.0,7.0,79,0.00,,,0.01,Wunderground v.1.15,2013-10-08 07:25:00,
2013-10-07 21:30:00,75.8,68.4,30.02,ESE,104,4.0,5.0,78,0.00,,,0.01,Wunderground v.1.15,2013-10-08 07:30:00,
2013-10-07 21:35:00,75.9,68.5,30.02,East,79,5.0,5.0,78,0.00,,,0.01,Wunderground v.1.15,2013-10-08 07:35:00,
2013-10-07 21:45:00,75.8,67.7,30.02,East,100,4.0,4.0,76,0.00,,,0.01,Wunderground v.1.15,2013-10-08 07:45:00,
2013-10-07 21:55:00,75.8,67.7,30.02,East,80,6.0,8.0,76,0.00,,,0.01,Wunderground v.1.15,2013-10-08 07:55:00,
2013-10-07 22:00:00,75.9,67.4,30.02,East,83,6.0,6.0,75,0.00,,,0.01,Wunderground v.1.15,2013-10-08 08:00:00,
2013-10-07 22:05:00,75.9,67.4,30.03,East,87,6.0,6.0,75,0.00,,,0.01,Wunderground v.1.15,2013-10-08 08:05:00,
2013-10-07 22:15:00,75.7,67.2,30.03,East,96,3.0,4.0,75,0.00,,,0.01,Wunderground v.1.15,2013-10-08 08:15:00,
2013-10-07 22:25:00,75.7,67.6,30.03,East,91,3.0,3.0,76,0.00,,,0.01,Wunderground v.1.15,2013-10-08 08:25:00,
2013-10-07 22:35:00,75.6,68.3,30.03,ESE,115,3.0,5.0,78,0.00,,,0.01,Wunderground v.1.15,2013-10-08 08:35:00,
2013-10-07 22:45:00,75.4,68.8,30.02,SSE,147,4.0,6.0,80,0.00,,,0.01,Wunderground v.1.15,2013-10-08 08:45:00,
2013-10-07 22:55:00,75.5,68.9,30.01,ESE,107,4.0,4.0,80,0.00,,,0.01,Wunderground v.1.15,2013-10-08 08:55:00,
2013-10-07 23:05:00,75.5,69.3,30.01,ESE,107,4.0,4.0,81,0.00,,,0.01,Wunderground v.1.15,2013-10-08 09:05:00,
2013-10-07 23:15:00,75.6,69.4,30.00,ESE,102,5.0,15.0,81,0.00,,,0.01,Wunderground v.1.15,2013-10-08 09:15:00,
2013-10-07 23:25:00,75.8,69.6,30.00,ESE,102,6.0,6.0,81,0.00,,,0.01,Wunderground v.1.15,2013-10-08 09:25:00,
2013-10-07 23:35:00,75.8,69.6,30.01,ESE,109,4.0,6.0,81,0.00,,,0.01,Wunderground v.1.15,2013-10-08 09:35:00,
2013-10-07 23:45:00,75.7,69.5,30.01,ESE,105,3.0,4.0,81,0.00,,,0.01,Wunderground v.1.15,2013-10-08 09:45:00,
2013-10-07 23:55:00,75.7,69.5,30.02,ESE,102,2.0,3.0,81,0.00,,,0.01,Wunderground v.1.15,2013-10-08 09:55:00,